Ivato Airport


Codes: FMMI/TNR
Name: Ivato Airport
City: Antananarivo
Country: Madagascar
Elevation: 4198 ft.
Wikipedia:

Photos at Ivato Airport


   Photos courtesy of SpottingLog. You can add your own sightings and photos by signing up for a free trial today.



No photos found.

Weather at Ivato Airport


Time (UTC)DescriptionTempratureWindCloud coverageVisibilityPressureHumidity
16-Jun-2024 03:00Scattered Clouds13°C4 mph, E26%10000m1021hPa97%
16-Jun-2024 06:00Scattered Clouds16°C7 mph, E47%10000m1020hPa82%
16-Jun-2024 09:00Broken Clouds22°C4 mph, E64%10000m1017hPa52%
16-Jun-2024 12:00Broken Clouds21°C4 mph, E75%10000m1016hPa56%
16-Jun-2024 15:00Overcast Clouds17°C4 mph, E100%10000m1019hPa77%
16-Jun-2024 18:00Overcast Clouds16°C4 mph, E100%10000m1021hPa90%
16-Jun-2024 21:00Light Rain15°C4 mph, E100%10000m1020hPa89%
17-Jun-2024 00:00Overcast Clouds15°C4 mph, SE90%10000m1020hPa87%
17-Jun-2024 03:00Overcast Clouds15°C7 mph, SE98%10000m1021hPa80%
17-Jun-2024 06:00Overcast Clouds18°C7 mph, SE97%10000m1022hPa66%
17-Jun-2024 09:00Scattered Clouds23°C4 mph, E44%10000m1019hPa48%
17-Jun-2024 12:00Broken Clouds21°C7 mph, NE64%10000m1018hPa56%
17-Jun-2024 15:00Overcast Clouds17°C7 mph, E95%10000m1019hPa80%
17-Jun-2024 18:00Overcast Clouds16°C7 mph, E97%10000m1022hPa90%
17-Jun-2024 21:00Overcast Clouds15°C7 mph, E97%10000m1022hPa85%
18-Jun-2024 00:00Overcast Clouds15°C4 mph, E98%10000m1021hPa86%
18-Jun-2024 03:00Broken Clouds13°C4 mph, E59%10000m1021hPa95%
18-Jun-2024 06:00Broken Clouds18°C7 mph, SE55%10000m1022hPa68%
18-Jun-2024 09:00Few Clouds23°C4 mph, SE13%10000m1019hPa44%
18-Jun-2024 12:00Clear Sky24°C4 mph, SE7%10000m1017hPa38%
18-Jun-2024 15:00Few Clouds16°C9 mph, E16%10000m1020hPa80%
18-Jun-2024 18:00Scattered Clouds14°C7 mph, E34%10000m1022hPa87%
18-Jun-2024 21:00Overcast Clouds15°C7 mph, E98%10000m1022hPa79%
19-Jun-2024 00:00Overcast Clouds14°C4 mph, E99%10000m1021hPa85%
19-Jun-2024 03:00Broken Clouds13°C4 mph, E72%10000m1022hPa94%
19-Jun-2024 06:00Broken Clouds16°C7 mph, SE57%10000m1023hPa71%
19-Jun-2024 09:00Scattered Clouds22°C7 mph, SE30%10000m1019hPa48%
19-Jun-2024 12:00Few Clouds23°C4 mph, E15%10000m1017hPa39%
19-Jun-2024 15:00Clear Sky16°C9 mph, E0%10000m1019hPa71%
19-Jun-2024 18:00Clear Sky13°C4 mph, E6%10000m1022hPa95%
19-Jun-2024 21:00Overcast Clouds14°C7 mph, E93%10000m1022hPa80%
20-Jun-2024 00:00Overcast Clouds14°C4 mph, E96%10000m1022hPa82%
20-Jun-2024 03:00Overcast Clouds14°C4 mph, E99%10000m1023hPa80%
20-Jun-2024 06:00Broken Clouds17°C9 mph, E82%10000m1024hPa62%
20-Jun-2024 09:00Clear Sky21°C7 mph, SE0%10000m1021hPa44%
20-Jun-2024 12:00Clear Sky22°C9 mph, E0%10000m1019hPa40%
20-Jun-2024 15:00Clear Sky15°C9 mph, E0%10000m1022hPa68%
20-Jun-2024 18:00Few Clouds13°C9 mph, SE13%10000m1025hPa86%
20-Jun-2024 21:00Overcast Clouds13°C9 mph, SE99%10000m1025hPa77%
21-Jun-2024 00:00Overcast Clouds12°C9 mph, SE97%10000m1024hPa81%